createdAt,value
2019-05-18T00:01:30.326Z,35.67
2019-05-18T00:03:59.177Z,35.53
2019-05-18T00:06:28.966Z,34.40
2019-05-18T00:08:57.863Z,35.13
2019-05-18T00:11:26.815Z,33.43
2019-05-18T00:13:55.666Z,34.67
2019-05-18T00:16:25.619Z,31.60
2019-05-18T00:18:54.463Z,29.87
2019-05-18T00:21:24.328Z,35.33
2019-05-18T00:23:53.248Z,31.83
2019-05-18T00:26:22.145Z,36.27
2019-05-18T00:28:51.129Z,34.37
2019-05-18T00:31:21.229Z,31.33
2019-05-18T00:33:50.157Z,29.53
2019-05-18T00:36:19.080Z,28.63
2019-05-18T00:38:47.991Z,26.57
2019-05-18T00:41:18.883Z,25.90
2019-05-18T00:43:47.843Z,22.47
2019-05-18T00:46:16.659Z,25.53
2019-05-18T00:48:45.542Z,25.87
2019-05-18T00:51:14.478Z,26.80
2019-05-18T00:53:43.325Z,25.00
2019-05-18T00:56:12.229Z,20.80
2019-05-18T00:58:41.108Z,23.37
2019-05-18T01:01:10.008Z,21.90
2019-05-18T01:03:39.822Z,22.83
2019-05-18T01:06:08.885Z,18.97
2019-05-18T01:08:37.758Z,24.37
2019-05-18T01:11:07.728Z,20.37
2019-05-18T01:13:36.606Z,24.87
2019-05-18T01:16:10.530Z,18.93
2019-05-18T01:18:39.392Z,16.43
2019-05-18T01:21:08.292Z,16.43
2019-05-18T01:23:38.107Z,15.37
2019-05-18T01:26:07.085Z,19.53
2019-05-18T01:28:35.988Z,18.13
2019-05-18T01:31:05.036Z,16.73
2019-05-18T01:33:34.888Z,19.30
2019-05-18T01:36:03.790Z,15.13
2019-05-18T01:38:32.681Z,15.10
2019-05-18T01:41:01.578Z,14.10
2019-05-18T01:43:30.456Z,20.33
2019-05-18T01:45:59.479Z,16.53
2019-05-18T01:48:28.341Z,14.50
2019-05-18T01:50:57.250Z,12.67
2019-05-18T01:53:31.931Z,11.13
2019-05-18T01:56:00.764Z,11.53
2019-05-18T01:58:29.638Z,11.30
2019-05-18T02:00:58.538Z,13.87
2019-05-18T02:03:27.411Z,14.30
2019-05-18T02:05:56.352Z,12.23
2019-05-18T02:08:25.248Z,13.20
2019-05-18T02:10:54.204Z,11.37
2019-05-18T02:13:23.067Z,11.10
2019-05-18T02:15:51.955Z,10.17
2019-05-18T02:18:28.683Z,11.00
2019-05-18T02:20:51.511Z,12.63
2019-05-18T02:23:20.473Z,11.27
2019-05-18T02:25:49.433Z,11.30
2019-05-18T02:28:18.271Z,11.70
2019-05-18T02:30:47.172Z,12.03
2019-05-18T02:33:16.988Z,12.33
2019-05-18T02:35:45.908Z,13.30
2019-05-18T02:38:18.246Z,16.33
2019-05-18T02:40:48.314Z,13.00
2019-05-18T02:43:20.288Z,11.67
2019-05-18T02:45:49.250Z,12.33
2019-05-18T02:48:18.112Z,12.43
2019-05-18T02:50:49.085Z,11.13
2019-05-18T02:53:18.053Z,10.87
2019-05-18T02:55:46.931Z,11.60
2019-05-18T02:58:15.903Z,11.53
2019-05-18T03:00:44.894Z,10.10
2019-05-18T03:03:13.873Z,9.40
2019-05-18T03:05:44.746Z,10.77
2019-05-18T03:08:14.813Z,8.90
2019-05-18T03:10:44.878Z,9.63
2019-05-18T03:13:13.847Z,9.57
2019-05-18T03:15:42.773Z,10.57
2019-05-18T03:18:11.661Z,10.10
2019-05-18T03:20:40.565Z,10.97
2019-05-18T03:23:09.513Z,10.53
2019-05-18T03:25:38.411Z,10.40
2019-05-18T03:28:07.381Z,31.50
2019-05-18T03:30:36.377Z,37.10
2019-05-18T03:33:06.336Z,11.07
2019-05-18T03:35:35.274Z,19.67
2019-05-18T03:38:04.266Z,9.93
2019-05-18T03:40:33.340Z,8.83
2019-05-18T03:43:02.223Z,7.43
2019-05-18T03:45:32.189Z,8.73
2019-05-18T03:48:01.100Z,8.70
2019-05-18T03:50:30.104Z,7.27
2019-05-18T03:52:59.000Z,7.97
2019-05-18T03:55:27.872Z,8.17
2019-05-18T03:57:56.769Z,8.60
2019-05-18T04:00:25.647Z,9.60
2019-05-18T04:02:54.544Z,9.20
2019-05-18T04:05:23.443Z,10.17
2019-05-18T04:07:52.351Z,9.10
2019-05-18T04:10:26.941Z,8.97
2019-05-18T04:12:55.928Z,8.73
2019-05-18T04:15:24.889Z,8.70
2019-05-18T04:17:53.747Z,9.20
2019-05-18T04:20:22.633Z,9.07
2019-05-18T04:22:51.525Z,9.10
2019-05-18T04:25:20.472Z,9.23
2019-05-18T04:27:49.312Z,8.00
2019-05-18T04:30:18.413Z,8.17
2019-05-18T04:32:47.392Z,7.90
2019-05-18T04:35:16.435Z,8.13
2019-05-18T04:37:45.337Z,9.70
2019-05-18T04:40:14.444Z,9.93
2019-05-18T04:42:43.377Z,39.93
2019-05-18T04:45:12.621Z,9.30
2019-05-18T04:47:41.423Z,9.60
2019-05-18T04:50:11.060Z,11.07
2019-05-18T04:52:39.865Z,10.57
2019-05-18T04:55:08.799Z,10.80
2019-05-18T04:57:37.671Z,10.17
2019-05-18T05:00:07.207Z,11.27
2019-05-18T05:02:36.068Z,9.33
2019-05-18T05:05:05.530Z,7.67
2019-05-18T05:07:34.403Z,9.03
2019-05-18T05:10:04.818Z,7.57
2019-05-18T05:12:33.808Z,7.43
2019-05-18T05:15:02.652Z,7.10
2019-05-18T05:17:31.456Z,6.93
2019-05-18T05:20:00.239Z,5.97
2019-05-18T05:22:29.050Z,5.00
2019-05-18T05:24:57.825Z,5.57
2019-05-18T05:27:26.638Z,4.57
2019-05-18T05:29:55.430Z,4.97
2019-05-18T05:32:24.213Z,4.90
2019-05-18T05:34:53.017Z,4.97
2019-05-18T05:37:22.822Z,7.00
2019-05-18T05:39:51.660Z,4.70
2019-05-18T05:42:20.540Z,4.03
2019-05-18T05:44:49.356Z,4.00
2019-05-18T05:47:18.140Z,4.17
2019-05-18T05:49:46.944Z,4.83
2019-05-18T05:52:15.751Z,4.20
2019-05-18T05:54:44.678Z,4.23
2019-05-18T05:57:13.471Z,4.93
2019-05-18T05:59:42.350Z,4.60
2019-05-18T06:02:11.137Z,3.87
2019-05-18T06:04:39.929Z,3.40
2019-05-18T06:07:08.806Z,3.90
2019-05-18T06:09:37.701Z,5.13
2019-05-18T06:12:06.509Z,3.10
2019-05-18T06:14:35.321Z,3.67
2019-05-18T06:17:04.213Z,3.60
2019-05-18T06:19:33.108Z,3.30
2019-05-18T06:22:01.902Z,3.40
2019-05-18T06:24:30.780Z,3.07
2019-05-18T06:26:59.621Z,3.60
2019-05-18T06:29:28.429Z,3.53
2019-05-18T06:31:57.206Z,3.23
2019-05-18T06:34:26.001Z,3.50
2019-05-18T06:36:55.979Z,3.53
2019-05-18T06:39:24.924Z,3.13
2019-05-18T06:41:53.720Z,2.83
2019-05-18T06:44:22.535Z,12.73
2019-05-18T06:46:51.324Z,4.30
2019-05-18T06:49:20.512Z,3.07
2019-05-18T06:51:49.300Z,3.30
2019-05-18T06:54:18.174Z,3.30
2019-05-18T06:56:47.530Z,3.20
2019-05-18T06:59:17.187Z,3.67
2019-05-18T07:01:45.971Z,3.63
2019-05-18T07:04:14.845Z,5.33
2019-05-18T07:06:43.718Z,3.73
2019-05-18T07:09:14.246Z,5.80
2019-05-18T07:11:43.383Z,3.50
2019-05-18T07:14:24.975Z,3.13
2019-05-18T07:16:42.836Z,3.50
2019-05-18T07:19:11.785Z,3.23
2019-05-18T07:21:40.588Z,3.10
2019-05-18T07:24:09.384Z,3.73
2019-05-18T07:26:38.252Z,2.67
2019-05-18T07:29:07.116Z,3.60
2019-05-18T07:31:35.997Z,2.70
2019-05-18T07:34:04.874Z,3.67
2019-05-18T07:36:33.656Z,3.83
2019-05-18T07:39:02.519Z,4.13
2019-05-18T07:41:44.506Z,3.80
2019-05-18T07:44:01.904Z,4.37
2019-05-18T07:46:30.700Z,3.80
2019-05-18T07:48:59.920Z,4.43
2019-05-18T07:51:37.091Z,3.73
2019-05-18T07:54:01.295Z,3.43
2019-05-18T07:56:38.136Z,3.90
2019-05-18T07:59:10.310Z,3.70
2019-05-18T08:01:42.257Z,4.10
2019-05-18T08:04:11.154Z,3.67
2019-05-18T08:06:40.033Z,4.00
2019-05-18T08:09:09.097Z,3.70
2019-05-18T08:11:37.920Z,3.70
2019-05-18T08:14:17.887Z,3.80
2019-05-18T08:16:47.811Z,3.40
2019-05-18T08:19:22.829Z,4.30
2019-05-18T08:21:53.557Z,4.10
2019-05-18T08:24:22.158Z,3.97
2019-05-18T08:26:56.044Z,4.27
2019-05-18T08:29:25.028Z,5.87
2019-05-18T08:31:53.912Z,5.60
2019-05-18T08:34:29.108Z,4.60
2019-05-18T08:36:58.058Z,5.00
2019-05-18T08:39:26.962Z,5.30
2019-05-18T08:41:55.768Z,5.57
2019-05-18T08:44:24.581Z,5.13
2019-05-18T08:46:53.393Z,5.70
2019-05-18T08:49:22.181Z,5.00
2019-05-18T08:51:51.054Z,5.53
2019-05-18T08:54:19.848Z,5.93
2019-05-18T08:56:48.643Z,5.40
2019-05-18T08:59:17.470Z,5.33
2019-05-18T09:01:46.278Z,6.10
2019-05-18T09:04:15.116Z,7.40
2019-05-18T09:06:43.917Z,7.30
2019-05-18T09:09:12.785Z,7.00
2019-05-18T09:11:41.584Z,7.10
2019-05-18T09:14:10.447Z,6.73
2019-05-18T09:16:39.269Z,8.73
2019-05-18T09:19:08.064Z,7.63
2019-05-18T09:21:39.447Z,8.80
2019-05-18T09:24:08.300Z,8.37
2019-05-18T09:26:37.170Z,9.23
2019-05-18T09:29:05.973Z,8.43
2019-05-18T09:31:34.751Z,7.40
2019-05-18T09:34:03.649Z,7.93
2019-05-18T09:36:32.517Z,8.20
2019-05-18T09:39:01.324Z,8.63
2019-05-18T09:41:30.124Z,7.67
2019-05-18T09:43:58.933Z,8.93
2019-05-18T09:46:27.728Z,9.20
2019-05-18T09:48:56.526Z,8.57
2019-05-18T09:51:25.319Z,9.37
2019-05-18T09:53:54.102Z,8.70
2019-05-18T09:56:22.897Z,9.03
2019-05-18T09:58:51.747Z,9.07
2019-05-18T10:01:21.679Z,8.80
2019-05-18T10:03:56.584Z,9.03
2019-05-18T10:06:25.383Z,8.77
2019-05-18T10:08:54.178Z,7.70
2019-05-18T10:11:23.014Z,8.23
2019-05-18T10:13:51.852Z,8.27
2019-05-18T10:16:20.661Z,9.90
2019-05-18T10:18:49.525Z,9.37
2019-05-18T10:21:18.324Z,10.27
2019-05-18T10:23:47.112Z,9.67
2019-05-18T10:26:15.899Z,9.73
2019-05-18T10:28:44.675Z,10.17
2019-05-18T10:31:13.487Z,10.33
2019-05-18T10:33:42.339Z,9.70
2019-05-18T10:36:11.892Z,10.23
2019-05-18T10:38:40.869Z,11.50
2019-05-18T10:41:09.733Z,10.80
2019-05-18T10:43:38.541Z,10.47
2019-05-18T10:46:07.353Z,11.53
2019-05-18T10:48:36.157Z,10.27
2019-05-18T10:51:05.696Z,10.40
2019-05-18T10:53:34.720Z,11.73
2019-05-18T10:56:04.076Z,10.70
2019-05-18T10:58:33.083Z,11.37
2019-05-18T11:01:01.945Z,10.47
2019-05-18T11:03:30.824Z,10.90
2019-05-18T11:05:59.680Z,10.37
2019-05-18T11:08:28.508Z,11.10
2019-05-18T11:10:57.309Z,11.27
2019-05-18T11:13:26.184Z,11.07
2019-05-18T11:15:55.119Z,10.50
2019-05-18T11:18:23.928Z,11.57
2019-05-18T11:20:52.813Z,12.27
2019-05-18T11:23:21.684Z,11.00
2019-05-18T11:25:50.470Z,12.30
2019-05-18T11:28:19.263Z,12.10
2019-05-18T11:30:48.153Z,13.30
2019-05-18T11:33:17.036Z,11.67
2019-05-18T11:35:45.825Z,11.77
2019-05-18T11:38:14.651Z,11.37
2019-05-18T11:40:43.597Z,10.63
2019-05-18T11:43:12.409Z,10.33
2019-05-18T11:45:41.285Z,10.27
2019-05-18T11:48:10.204Z,10.10
2019-05-18T11:50:39.099Z,10.53
2019-05-18T11:53:07.968Z,10.50
2019-05-18T11:55:36.821Z,10.77
2019-05-18T11:58:08.159Z,10.23
2019-05-18T12:00:37.038Z,11.83
2019-05-18T12:03:05.992Z,12.70
2019-05-18T12:05:34.777Z,12.03
2019-05-18T12:08:03.663Z,11.83
2019-05-18T12:10:32.736Z,11.77
2019-05-18T12:13:01.545Z,11.90
2019-05-18T12:15:30.488Z,11.20
2019-05-18T12:17:59.284Z,10.30
2019-05-18T12:20:28.324Z,9.77
2019-05-18T12:22:57.197Z,9.87
2019-05-18T12:25:25.997Z,10.93
2019-05-18T12:27:55.143Z,10.30
2019-05-18T12:30:24.481Z,11.00
2019-05-18T12:32:53.345Z,9.77
2019-05-18T12:35:22.128Z,9.20
2019-05-18T12:37:51.026Z,11.67
2019-05-18T12:40:21.841Z,12.20
2019-05-18T12:42:50.653Z,11.07
2019-05-18T12:45:22.840Z,10.07
2019-05-18T12:47:51.639Z,9.53
2019-05-18T12:50:20.989Z,9.90
2019-05-18T12:52:49.952Z,9.60
2019-05-18T12:55:19.375Z,9.60
2019-05-18T12:57:48.256Z,8.57
2019-05-18T13:00:19.121Z,8.60
2019-05-18T13:02:47.924Z,6.67
2019-05-18T13:05:16.895Z,8.43
2019-05-18T13:07:51.710Z,8.13
2019-05-18T13:10:22.529Z,8.13
2019-05-18T13:12:51.406Z,6.97
2019-05-18T13:15:20.622Z,7.00
2019-05-18T13:17:49.510Z,6.90
2019-05-18T13:20:18.951Z,7.40
2019-05-18T13:22:47.766Z,6.93
2019-05-18T13:25:17.211Z,7.73
2019-05-18T13:27:46.052Z,8.63
2019-05-18T13:30:19.562Z,9.10
2019-05-18T13:32:46.513Z,9.27
2019-05-18T13:35:15.455Z,7.90
2019-05-18T13:37:44.318Z,8.87
2019-05-18T13:40:15.369Z,8.20
2019-05-18T13:42:44.160Z,8.07
2019-05-18T13:45:13.909Z,11.33
2019-05-18T13:47:42.795Z,8.27
2019-05-18T13:50:11.918Z,7.77
2019-05-18T13:52:40.840Z,8.27
2019-05-18T13:55:09.785Z,8.13
2019-05-18T13:57:38.645Z,8.63
2019-05-18T14:00:09.896Z,9.07
2019-05-18T14:02:38.826Z,9.13
2019-05-18T14:05:07.878Z,8.40
2019-05-18T14:07:36.805Z,8.20
2019-05-18T14:10:06.420Z,22.53
2019-05-18T14:12:35.277Z,8.93
2019-05-18T14:15:04.739Z,8.30
2019-05-18T14:17:33.523Z,9.07
2019-05-18T14:20:02.551Z,7.23
2019-05-18T14:22:31.384Z,8.73
2019-05-18T14:25:00.178Z,8.03
2019-05-18T14:27:28.980Z,8.43
2019-05-18T14:29:57.788Z,8.33
2019-05-18T14:32:26.569Z,7.70
2019-05-18T14:34:55.382Z,8.20
2019-05-18T14:37:24.158Z,8.03
2019-05-18T14:39:53.001Z,7.10
2019-05-18T14:42:21.872Z,7.30
2019-05-18T14:44:50.703Z,7.70
2019-05-18T14:47:19.495Z,8.50
2019-05-18T14:49:48.291Z,8.47
2019-05-18T14:52:17.094Z,7.43
2019-05-18T14:54:45.881Z,7.07
2019-05-18T14:57:14.677Z,7.57
2019-05-18T14:59:43.486Z,6.60
2019-05-18T15:02:12.271Z,7.40
2019-05-18T15:04:41.077Z,6.30
2019-05-18T15:07:09.932Z,7.43
2019-05-18T15:09:38.748Z,7.10
2019-05-18T15:12:07.693Z,7.30
2019-05-18T15:14:36.498Z,6.97
2019-05-18T15:17:05.366Z,7.27
2019-05-18T15:19:34.305Z,6.97
2019-05-18T15:22:03.092Z,6.30
2019-05-18T15:24:31.980Z,6.53
2019-05-18T15:27:00.785Z,7.40
2019-05-18T15:29:29.667Z,7.10
2019-05-18T15:31:58.481Z,7.10
2019-05-18T15:34:27.289Z,6.90
2019-05-18T15:36:59.091Z,6.60
2019-05-18T15:39:27.897Z,7.57
2019-05-18T15:41:56.693Z,7.40
2019-05-18T15:44:25.503Z,6.40
2019-05-18T15:46:54.308Z,6.57
2019-05-18T15:49:23.179Z,6.37
2019-05-18T15:51:52.050Z,7.00
2019-05-18T15:54:20.839Z,6.80
2019-05-18T15:56:49.710Z,6.07
2019-05-18T15:59:18.575Z,6.60
2019-05-18T16:01:47.460Z,6.70
2019-05-18T16:04:16.257Z,6.50
2019-05-18T16:06:45.056Z,6.80
2019-05-18T16:09:13.844Z,6.00
2019-05-18T16:11:42.736Z,6.70
2019-05-18T16:14:11.546Z,6.03
2019-05-18T16:16:40.437Z,6.30
2019-05-18T16:19:09.305Z,7.60
2019-05-18T16:21:38.119Z,6.63
2019-05-18T16:24:06.996Z,6.70
2019-05-18T16:26:35.792Z,6.53
2019-05-18T16:29:04.766Z,5.93
2019-05-18T16:31:33.726Z,6.00
2019-05-18T16:34:02.655Z,6.60
2019-05-18T16:36:31.552Z,6.93
2019-05-18T16:39:00.339Z,6.50
2019-05-18T16:41:29.155Z,7.23
2019-05-18T16:43:58.088Z,7.70
2019-05-18T16:46:26.967Z,6.43
2019-05-18T16:48:55.800Z,7.00
2019-05-18T16:51:24.635Z,7.10
2019-05-18T16:53:53.435Z,7.00
2019-05-18T16:56:34.517Z,7.80
2019-05-18T16:58:52.843Z,7.80
2019-05-18T17:01:21.717Z,6.77
2019-05-18T17:03:50.591Z,7.27
2019-05-18T17:06:19.448Z,6.40
2019-05-18T17:08:48.245Z,6.57
2019-05-18T17:11:17.052Z,7.07
2019-05-18T17:13:45.972Z,6.83
2019-05-18T17:16:14.793Z,6.93
2019-05-18T17:18:43.579Z,7.40
2019-05-18T17:21:12.457Z,6.43
2019-05-18T17:23:41.376Z,6.37
2019-05-18T17:26:10.310Z,6.80
2019-05-18T17:28:39.084Z,5.90
2019-05-18T17:31:08.025Z,7.10
2019-05-18T17:33:42.708Z,6.67
2019-05-18T17:36:11.582Z,7.60
2019-05-18T17:38:40.378Z,8.07
2019-05-18T17:41:09.370Z,8.40
2019-05-18T17:43:38.227Z,7.40
2019-05-18T17:46:07.334Z,6.47
2019-05-18T17:48:36.232Z,8.00
2019-05-18T17:51:05.099Z,7.73
2019-05-18T17:53:33.886Z,7.47
2019-05-18T17:56:02.768Z,7.53
2019-05-18T17:58:31.543Z,7.47
2019-05-18T18:01:00.348Z,6.90
2019-05-18T18:03:29.137Z,8.07
2019-05-18T18:05:58.092Z,7.73
2019-05-18T18:08:26.881Z,7.00
2019-05-18T18:10:56.224Z,7.33
2019-05-18T18:13:25.174Z,8.03
2019-05-18T18:15:54.074Z,8.30
2019-05-18T18:18:22.957Z,7.70
2019-05-18T18:20:51.782Z,8.07
2019-05-18T18:23:20.651Z,7.87
2019-05-18T18:25:49.483Z,7.50
2019-05-18T18:28:18.358Z,7.43
2019-05-18T18:30:47.251Z,7.63
2019-05-18T18:33:16.198Z,7.80
2019-05-18T18:35:45.061Z,8.63
2019-05-18T18:38:13.900Z,7.43
2019-05-18T18:40:42.891Z,8.07
2019-05-18T18:43:11.770Z,7.30
2019-05-18T18:45:41.415Z,7.70
2019-05-18T18:48:10.217Z,8.40
2019-05-18T18:50:39.067Z,7.70
2019-05-18T18:53:08.405Z,7.97
2019-05-18T18:55:37.254Z,8.00
2019-05-18T18:58:06.139Z,8.43
2019-05-18T19:00:34.985Z,8.60
2019-05-18T19:03:03.808Z,8.27
2019-05-18T19:05:32.584Z,9.10
2019-05-18T19:08:01.380Z,9.23
2019-05-18T19:10:30.251Z,8.70
2019-05-18T19:12:59.062Z,8.93
2019-05-18T19:15:27.925Z,9.07
2019-05-18T19:17:56.774Z,8.27
2019-05-18T19:20:25.637Z,8.33
2019-05-18T19:22:54.444Z,8.57
2019-05-18T19:25:23.304Z,9.70
2019-05-18T19:27:55.319Z,10.13
2019-05-18T19:30:22.694Z,8.87
2019-05-18T19:32:51.524Z,9.63
2019-05-18T19:35:20.456Z,9.80
2019-05-18T19:37:49.287Z,10.63
2019-05-18T19:40:18.309Z,9.63
2019-05-18T19:42:47.100Z,11.60
2019-05-18T19:45:16.057Z,10.03
2019-05-18T19:47:44.874Z,9.90
2019-05-18T19:50:14.083Z,10.40
2019-05-18T19:52:42.897Z,9.70
2019-05-18T19:55:11.759Z,9.27
2019-05-18T19:57:40.574Z,9.37
2019-05-18T20:00:10.816Z,10.00
2019-05-18T20:02:40.190Z,10.30
2019-05-18T20:05:09.772Z,9.63
2019-05-18T20:07:38.827Z,10.40
2019-05-18T20:10:08.118Z,11.97
2019-05-18T20:12:37.014Z,10.27
2019-05-18T20:15:09.389Z,9.27
2019-05-18T20:17:36.796Z,9.70
2019-05-18T20:20:05.763Z,8.50
2019-05-18T20:22:34.636Z,9.03
2019-05-18T20:25:03.759Z,10.00
2019-05-18T20:27:32.637Z,9.90
2019-05-18T20:30:01.429Z,10.97
2019-05-18T20:32:30.387Z,10.50
2019-05-18T20:34:59.181Z,10.93
2019-05-18T20:37:27.991Z,11.87
2019-05-18T20:39:56.849Z,10.37
2019-05-18T20:42:25.742Z,10.67
2019-05-18T20:44:54.631Z,11.77
2019-05-18T20:47:23.435Z,10.07
2019-05-18T20:49:52.296Z,10.70
2019-05-18T20:52:21.088Z,10.27
2019-05-18T20:54:49.891Z,10.73
2019-05-18T20:57:18.680Z,11.10
2019-05-18T20:59:47.492Z,10.93
2019-05-18T21:02:16.281Z,10.80
2019-05-18T21:04:51.432Z,11.30
2019-05-18T21:07:20.231Z,9.87
2019-05-18T21:09:49.179Z,10.40
2019-05-18T21:12:17.962Z,10.37
2019-05-18T21:14:46.773Z,15.20
2019-05-18T21:17:15.644Z,11.10
2019-05-18T21:19:44.449Z,8.63
2019-05-18T21:22:13.240Z,11.10
2019-05-18T21:24:42.115Z,10.80
2019-05-18T21:27:10.925Z,11.60
2019-05-18T21:29:39.715Z,10.73
2019-05-18T21:32:08.521Z,9.33
2019-05-18T21:34:37.384Z,10.00
2019-05-18T21:37:06.171Z,9.63
2019-05-18T21:39:35.026Z,10.20
2019-05-18T21:42:03.951Z,10.67
2019-05-18T21:44:32.782Z,11.70
2019-05-18T21:47:01.723Z,10.60
2019-05-18T21:49:30.518Z,10.23
2019-05-18T21:51:59.317Z,57.40
2019-05-18T21:54:28.324Z,10.13
2019-05-18T21:56:57.114Z,9.77
2019-05-18T21:59:26.167Z,9.90
2019-05-18T22:01:54.988Z,9.93
2019-05-18T22:04:23.782Z,10.03
2019-05-18T22:06:52.579Z,11.10
2019-05-18T22:09:21.402Z,10.80
2019-05-18T22:11:50.256Z,11.40
2019-05-18T22:14:19.184Z,10.10
2019-05-18T22:16:47.968Z,9.77
2019-05-18T22:19:16.763Z,9.97
2019-05-18T22:21:45.556Z,10.23
2019-05-18T22:24:14.363Z,8.53
2019-05-18T22:26:43.211Z,8.70
2019-05-18T22:29:12.013Z,8.67
2019-05-18T22:31:40.788Z,9.13
2019-05-18T22:34:09.583Z,8.30
2019-05-18T22:36:38.373Z,9.37
2019-05-18T22:39:07.506Z,9.97
2019-05-18T22:41:36.540Z,8.37
2019-05-18T22:44:07.353Z,8.23
2019-05-18T22:46:36.209Z,8.90
2019-05-18T22:49:23.284Z,9.03
2019-05-18T22:51:57.184Z,12.80
2019-05-18T22:54:26.043Z,9.23
2019-05-18T22:56:54.917Z,9.70
2019-05-18T22:59:27.825Z,10.23
2019-05-18T23:01:56.701Z,10.53
2019-05-18T23:04:25.634Z,11.20
2019-05-18T23:06:54.602Z,11.70
2019-05-18T23:09:31.832Z,12.47
2019-05-18T23:12:00.767Z,12.17
2019-05-18T23:14:29.745Z,11.63
2019-05-18T23:16:59.571Z,11.53
2019-05-18T23:19:28.477Z,12.53
2019-05-18T23:22:03.305Z,12.47
2019-05-18T23:24:33.116Z,11.87
2019-05-18T23:27:05.113Z,12.97
2019-05-18T23:29:33.993Z,52.27
2019-05-18T23:32:05.154Z,14.80
2019-05-18T23:34:34.007Z,13.80
2019-05-18T23:37:15.284Z,14.30
2019-05-18T23:39:45.191Z,13.67
2019-05-18T23:42:14.153Z,15.37
2019-05-18T23:44:45.120Z,15.67
2019-05-18T23:47:14.090Z,14.50
2019-05-18T23:49:43.946Z,17.63
2019-05-18T23:52:12.820Z,17.50
2019-05-18T23:54:41.717Z,17.60
2019-05-18T23:57:10.616Z,18.00
2019-05-18T23:59:39.493Z,20.53
